Time;durP1;ratioP1;P1;durP2;ratioP2;P2;SDS_P1;SDS_P2;PMS_P1;PMS_P2;Temp;Humidity;BMP_temperature;BMP_pressure;BME280_temperature;BME280_humidity;BME280_pressure;Samples;Min_cycle;Max_cycle;Signal;HPM_P1;HPM_P2
2022/12/23 00:01:16;;;;;;;21.92;9.15;;;10.70;99.90;;;;;;5037552;28;20409;-38
2022/12/23 00:03:42;;;;;;;33.10;11.02;;;10.60;99.90;;;;;;5033479;28;20507;-38
2022/12/23 00:06:10;;;;;;;31.70;11.57;;;10.60;99.90;;;;;;5048018;28;20292;-39
2022/12/23 00:08:35;;;;;;;24.75;7.68;;;10.60;99.90;;;;;;5044470;28;20497;-35
2022/12/23 00:11:03;;;;;;;29.05;10.13;;;10.60;99.90;;;;;;5033330;28;20029;-36
2022/12/23 00:16:13;;;;;;;36.05;11.60;;;10.70;99.90;;;;;;5034008;28;20595;-40
2022/12/23 00:18:40;;;;;;;34.35;10.30;;;10.70;99.90;;;;;;5035964;28;20025;-39
2022/12/23 00:21:08;;;;;;;29.20;10.40;;;10.70;99.90;;;;;;5035386;28;20532;-40
2022/12/23 00:23:36;;;;;;;28.55;9.90;;;10.70;99.90;;;;;;5033084;28;20029;-34
2022/12/23 00:26:02;;;;;;;;;;;10.70;99.90;;;;;;5033486;28;20393;-30
2022/12/23 00:28:28;;;;;;;28.70;9.55;;;10.80;99.90;;;;;;5030501;28;19909;-36
2022/12/23 00:31:03;;;;;;;28.77;9.80;;;10.70;99.90;;;;;;5029951;28;20532;-31
2022/12/23 00:33:32;;;;;;;37.47;10.15;;;10.70;99.90;;;;;;5045027;28;20113;-35
2022/12/23 00:35:58;;;;;;;31.33;10.68;;;10.60;99.90;;;;;;5032293;28;20108;-30
2022/12/23 00:44:00;;;;;;;18.08;8.65;;;10.70;99.90;;;;;;5035557;28;20540;-34
2022/12/23 00:46:25;;;;;;;29.17;9.55;;;10.80;99.90;;;;;;5033210;28;20122;-33
2022/12/23 00:51:35;;;;;;;23.50;8.63;;;10.80;99.90;;;;;;5035180;28;20521;-33
2022/12/23 00:54:02;;;;;;;27.48;10.45;;;10.70;99.90;;;;;;5031996;28;20029;-30
2022/12/23 00:56:28;;;;;;;26.10;10.38;;;10.70;99.90;;;;;;5035947;28;20468;-52
2022/12/23 00:58:54;;;;;;;28.40;9.23;;;10.70;99.90;;;;;;5039401;28;20045;-32
2022/12/23 01:06:48;;;;;;;21.77;8.15;;;10.70;99.90;;;;;;5040400;28;20543;-35
2022/12/23 01:09:14;;;;;;;23.38;9.73;;;10.80;99.90;;;;;;5035853;28;20017;-37
2022/12/23 01:11:40;;;;;;;28.30;8.98;;;10.70;99.90;;;;;;5031210;28;20397;-32
2022/12/23 01:14:08;;;;;;;23.58;9.95;;;10.80;99.90;;;;;;5028730;28;20485;-34
2022/12/23 01:16:36;;;;;;;21.35;8.50;;;10.80;99.90;;;;;;5033049;28;20029;-32
2022/12/23 01:19:02;;;;;;;17.75;9.00;;;10.80;99.90;;;;;;5043304;28;20210;-33
2022/12/23 01:21:28;;;;;;;22.65;8.38;;;10.70;99.90;;;;;;5041596;28;20498;-34
2022/12/23 01:23:53;;;;;;;23.55;8.95;;;10.70;99.90;;;;;;5035080;28;20437;-30
2022/12/23 01:26:19;;;;;;;18.05;7.78;;;10.70;99.90;;;;;;5048008;28;20017;-34
2022/12/23 01:28:45;;;;;;;21.20;8.05;;;10.70;99.90;;;;;;5029158;28;20034;-31
2022/12/23 01:31:11;;;;;;;27.55;9.38;;;10.70;99.90;;;;;;5033096;28;20038;-32
2022/12/23 01:33:37;;;;;;;22.13;8.07;;;10.70;99.90;;;;;;5045082;28;20524;-35
2022/12/23 01:36:06;;;;;;;18.25;6.93;;;10.70;99.90;;;;;;5037312;28;20459;-33
2022/12/23 01:38:32;;;;;;;15.25;6.13;;;10.60;99.90;;;;;;5029953;28;20037;-34
2022/12/23 01:40:57;;;;;;;15.15;6.15;;;10.60;99.90;;;;;;5032503;28;20047;-35
2022/12/23 01:43:46;;;;;;;16.00;5.82;;;10.50;99.90;;;;;;5033528;28;20096;-32
2022/12/23 01:46:12;;;;;;;15.82;5.32;;;10.40;99.90;;;;;;5036072;28;20028;-33
2022/12/23 01:48:38;;;;;;;11.90;4.55;;;10.50;99.90;;;;;;5033561;28;20029;-38
2022/12/23 01:51:11;;;;;;;18.15;5.90;;;10.40;99.90;;;;;;5036740;28;20063;-30
2022/12/23 01:53:44;;;;;;;12.88;5.25;;;10.50;99.90;;;;;;5036651;28;20071;-39
2022/12/23 01:56:18;;;;;;;15.10;5.53;;;10.50;99.90;;;;;;5037119;28;20034;-33
2022/12/23 01:58:56;;;;;;;15.45;5.45;;;10.50;99.90;;;;;;5033275;28;20026;-37
2022/12/23 02:04:09;;;;;;;14.05;4.55;;;10.40;99.90;;;;;;5030732;28;20088;-35
2022/12/23 02:09:25;;;;;;;15.63;5.70;;;10.50;99.90;;;;;;5032486;28;20183;-30
2022/12/23 02:12:05;;;;;;;20.85;5.35;;;10.40;99.90;;;;;;5032889;28;20053;-36
2022/12/23 02:17:40;;;;;;;11.80;6.15;;;10.40;99.90;;;;;;5036394;28;20098;-35
2022/12/23 02:20:05;;;;;;;14.50;5.47;;;10.40;99.90;;;;;;5031385;28;20026;-31
2022/12/23 02:23:11;;;;;;;12.75;5.38;;;10.40;99.90;;;;;;5041087;28;20079;-34
2022/12/23 02:25:51;;;;;;;15.73;6.40;;;10.40;99.90;;;;;;5034757;28;20116;-36
2022/12/23 02:28:55;;;;;;;16.95;6.93;;;10.40;99.90;;;;;;5049965;28;20039;-32
2022/12/23 02:31:39;;;;;;;12.25;5.65;;;10.40;99.90;;;;;;5030411;28;20408;-36
2022/12/23 02:34:22;;;;;;;18.02;6.78;;;10.40;99.90;;;;;;5044504;28;20629;-32
2022/12/23 02:37:07;;;;;;;19.67;5.70;;;10.40;99.90;;;;;;5040257;28;20025;-34
2022/12/23 02:39:55;;;;;;;14.13;5.78;;;10.40;99.90;;;;;;5035002;28;20059;-41
2022/12/23 02:42:28;;;;;;;16.13;6.75;;;10.40;99.90;;;;;;5044184;28;20032;-32
2022/12/23 02:45:22;;;;;;;14.73;6.22;;;10.40;99.90;;;;;;5039378;28;20026;-32
2022/12/23 02:48:03;;;;;;;14.25;6.80;;;10.30;99.90;;;;;;5033853;28;20021;-33
2022/12/23 02:50:32;;;;;;;17.77;6.20;;;10.30;99.90;;;;;;5046117;28;20666;-34
2022/12/23 02:53:02;;;;;;;13.98;6.72;;;10.40;99.90;;;;;;5033996;28;20502;-33
2022/12/23 02:55:32;;;;;;;20.08;6.70;;;10.40;99.90;;;;;;5041946;28;20029;-39
2022/12/23 02:58:01;;;;;;;14.07;6.10;;;10.40;99.90;;;;;;5038752;28;20022;-41
2022/12/23 03:00:28;;;;;;;17.27;7.07;;;10.40;99.90;;;;;;5043176;28;20029;-41
2022/12/23 03:02:54;;;;;;;18.30;6.85;;;10.30;99.90;;;;;;5037287;28;20477;-57
2022/12/23 03:05:29;;;;;;;18.95;6.80;;;10.40;99.90;;;;;;5044365;28;20100;-39
2022/12/23 03:08:01;;;;;;;18.05;6.28;;;10.30;99.90;;;;;;5036803;28;20435;-40
2022/12/23 03:11:08;;;;;;;17.00;5.93;;;10.20;99.90;;;;;;5031876;28;20765;-39
2022/12/23 03:14:02;;;;;;;12.68;5.88;;;10.20;99.90;;;;;;5036379;28;20100;-41
2022/12/23 03:16:51;;;;;;;14.95;5.82;;;10.30;99.90;;;;;;5045003;28;20048;-40
2022/12/23 03:19:35;;;;;;;13.32;5.40;;;10.30;99.90;;;;;;5045374;28;20064;-40
2022/12/23 03:22:45;;;;;;;13.82;5.32;;;10.20;99.90;;;;;;5036187;28;20116;-40
2022/12/23 03:25:27;;;;;;;10.15;5.15;;;10.20;99.90;;;;;;5026470;28;20068;-39
2022/12/23 03:28:14;;;;;;;12.40;6.45;;;10.10;99.90;;;;;;5033654;28;20033;-40
2022/12/23 03:30:45;;;;;;;14.10;5.72;;;10.10;99.90;;;;;;5036106;28;20083;-42
2022/12/23 03:33:19;;;;;;;13.02;5.78;;;10.10;99.90;;;;;;5030618;28;20532;-39
2022/12/23 03:35:51;;;;;;;15.93;6.40;;;10.10;99.90;;;;;;5029290;28;20489;-41
2022/12/23 03:38:18;;;;;;;13.45;6.32;;;10.10;99.90;;;;;;5027152;28;20072;-40
2022/12/23 03:40:52;;;;;;;15.50;6.50;;;10.10;99.90;;;;;;5036432;28;20348;-51
2022/12/23 03:43:25;;;;;;;13.90;6.57;;;10.10;99.90;;;;;;5041796;28;20465;-42
2022/12/23 03:45:59;;;;;;;16.10;7.53;;;10.10;99.90;;;;;;5041679;28;20068;-40
2022/12/23 03:48:51;;;;;;;16.95;6.45;;;10.10;99.90;;;;;;5049072;28;20370;-40
2022/12/23 03:51:24;;;;;;;27.10;7.28;;;10.10;99.90;;;;;;5040110;28;20538;-36
2022/12/23 03:54:13;;;;;;;14.65;7.40;;;10.00;99.90;;;;;;5037692;28;20428;-31
2022/12/23 03:56:48;;;;;;;15.07;7.35;;;10.00;99.90;;;;;;5048275;28;20025;-31
2022/12/23 03:59:19;;;;;;;15.93;7.78;;;10.10;99.90;;;;;;5042356;28;20036;-38
2022/12/23 04:02:06;;;;;;;14.40;7.22;;;10.00;99.90;;;;;;5048910;28;20520;-31
2022/12/23 04:04:50;;;;;;;18.25;8.00;;;10.10;99.90;;;;;;5040555;28;20056;-33
2022/12/23 04:07:37;;;;;;;16.63;8.50;;;10.10;99.90;;;;;;5037619;28;20308;-32
2022/12/23 04:12:14;;;;;;;15.70;8.10;;;10.00;99.90;;;;;;5125390;27;20404;-30
2022/12/23 04:14:46;;;;;;;15.82;7.80;;;10.00;99.90;;;;;;5107391;28;20035;-31
2022/12/23 04:17:12;;;;;;;18.10;8.32;;;10.00;99.90;;;;;;5110634;28;20480;-37
2022/12/23 04:19:38;;;;;;;19.48;7.75;;;10.00;99.90;;;;;;5110628;28;20107;-34
2022/12/23 04:22:03;;;;;;;16.60;8.07;;;10.10;99.90;;;;;;5104614;28;20531;-32
2022/12/23 04:24:29;;;;;;;16.02;7.90;;;10.00;99.90;;;;;;5105462;28;20480;-32
2022/12/23 04:26:54;;;;;;;17.77;8.70;;;10.10;99.90;;;;;;5088870;28;20040;-32
2022/12/23 04:29:20;;;;;;;14.18;7.18;;;10.10;99.90;;;;;;5090126;28;20077;-32
2022/12/23 04:31:46;;;;;;;14.40;7.40;;;10.10;99.90;;;;;;5098831;28;20482;-31
2022/12/23 04:34:11;;;;;;;13.88;7.75;;;10.10;99.90;;;;;;5109284;28;20032;-38
2022/12/23 04:36:37;;;;;;;16.98;7.72;;;10.10;99.90;;;;;;5109602;28;20069;-31
2022/12/23 04:39:03;;;;;;;17.65;8.40;;;10.10;99.90;;;;;;5098553;28;20024;-33
2022/12/23 04:41:28;;;;;;;17.20;7.68;;;10.00;99.90;;;;;;5107940;28;20023;-35
2022/12/23 04:43:54;;;;;;;13.75;7.30;;;10.00;99.90;;;;;;5109977;28;20038;-37
2022/12/23 04:46:20;;;;;;;14.77;7.63;;;10.00;99.90;;;;;;5105866;28;20410;-31
2022/12/23 04:48:45;;;;;;;15.90;7.55;;;10.00;99.90;;;;;;5110029;28;20028;-35
2022/12/23 04:51:11;;;;;;;15.70;7.28;;;9.90;99.90;;;;;;5102535;28;20035;-33
2022/12/23 04:53:37;;;;;;;14.93;7.90;;;9.90;99.90;;;;;;5108684;28;20102;-32
2022/12/23 04:56:03;;;;;;;12.20;7.07;;;10.00;99.90;;;;;;5109898;28;20493;-34
2022/12/23 04:58:28;;;;;;;14.70;7.25;;;10.00;99.90;;;;;;5108859;28;20019;-32
2022/12/23 05:01:05;;;;;;;12.63;6.70;;;9.80;99.90;;;;;;5103632;28;20054;-31
2022/12/23 05:03:31;;;;;;;16.85;6.63;;;9.80;99.90;;;;;;5094162;28;20032;-34
2022/12/23 05:05:57;;;;;;;12.85;6.38;;;9.80;99.90;;;;;;5100367;28;20031;-36
2022/12/23 05:08:23;;;;;;;13.18;5.38;;;9.90;99.90;;;;;;5103700;28;20507;-31
2022/12/23 05:10:48;;;;;;;10.55;5.63;;;9.90;99.90;;;;;;5090867;28;20036;-31
2022/12/23 05:13:14;;;;;;;10.23;5.22;;;9.90;99.90;;;;;;5096560;28;20484;-33
2022/12/23 05:15:43;;;;;;;10.57;5.78;;;9.90;99.90;;;;;;5102681;28;20059;-33
2022/12/23 05:18:09;;;;;;;8.93;5.57;;;10.00;99.90;;;;;;5091621;28;20466;-32
2022/12/23 05:20:34;;;;;;;10.35;5.63;;;10.00;99.90;;;;;;5109480;28;20098;-32
2022/12/23 05:23:00;;;;;;;9.65;5.72;;;9.90;99.90;;;;;;5092426;28;20028;-34
2022/12/23 05:25:26;;;;;;;11.82;5.85;;;9.90;99.90;;;;;;5083480;28;20060;-31
2022/12/23 05:27:51;;;;;;;10.77;5.30;;;9.80;99.90;;;;;;5075654;28;20477;-34
2022/12/23 05:30:17;;;;;;;15.40;6.05;;;9.90;99.90;;;;;;5095601;28;20024;-33
2022/12/23 05:32:42;;;;;;;10.52;5.85;;;9.90;99.90;;;;;;5086972;28;20032;-31
2022/12/23 05:35:09;;;;;;;8.35;5.40;;;9.90;99.90;;;;;;5074093;28;20056;-36
2022/12/23 05:37:35;;;;;;;10.25;5.57;;;10.00;99.90;;;;;;5092343;28;20472;-32
2022/12/23 05:40:00;;;;;;;10.98;5.95;;;10.00;99.90;;;;;;5093986;28;20035;-36
2022/12/23 05:42:26;;;;;;;15.73;5.88;;;10.00;99.90;;;;;;5084516;28;20024;-31
2022/12/23 05:44:51;;;;;;;12.77;6.03;;;10.00;99.90;;;;;;5073308;28;20020;-35
2022/12/23 05:47:17;;;;;;;13.48;6.93;;;10.00;99.90;;;;;;5083737;28;20028;-31
2022/12/23 05:49:42;;;;;;;15.70;7.43;;;10.00;99.90;;;;;;5082753;28;20480;-32
2022/12/23 05:52:08;;;;;;;21.25;8.27;;;10.00;99.90;;;;;;5087526;28;20032;-34
2022/12/23 05:54:34;;;;;;;15.18;7.55;;;10.00;99.90;;;;;;5094332;28;20484;-36
2022/12/23 05:56:59;;;;;;;12.90;7.18;;;10.00;99.90;;;;;;5084996;28;20107;-36
2022/12/23 05:59:25;;;;;;;16.30;8.35;;;10.00;99.90;;;;;;5090877;28;20541;-31
2022/12/23 06:01:51;;;;;;;14.43;7.30;;;10.00;99.90;;;;;;5083231;28;20044;-32
2022/12/23 06:04:16;;;;;;;14.35;7.13;;;10.00;99.90;;;;;;5092992;28;20476;-31
2022/12/23 06:06:42;;;;;;;15.15;7.95;;;10.00;99.90;;;;;;5090393;28;20035;-32
2022/12/23 06:09:08;;;;;;;14.27;7.43;;;10.00;99.90;;;;;;5078968;28;20501;-31
2022/12/23 06:11:34;;;;;;;17.00;7.53;;;10.00;99.90;;;;;;5093523;28;20066;-31
2022/12/23 06:14:01;;;;;;;14.05;7.38;;;10.00;99.90;;;;;;5091126;28;20028;-31
2022/12/23 06:16:27;;;;;;;20.92;7.97;;;10.00;99.90;;;;;;5095212;28;20024;-34
2022/12/23 06:18:55;;;;;;;17.35;7.15;;;10.00;99.90;;;;;;5094819;28;20494;-34
2022/12/23 06:21:21;;;;;;;11.60;6.40;;;9.90;99.90;;;;;;5086070;28;20495;-33
2022/12/23 06:23:47;;;;;;;17.65;7.72;;;9.90;99.90;;;;;;5074149;28;20024;-36
2022/12/23 06:26:13;;;;;;;12.73;6.95;;;9.90;99.90;;;;;;5084171;28;20550;-35
2022/12/23 06:28:38;;;;;;;17.98;7.70;;;9.90;99.90;;;;;;5079695;28;20023;-33
2022/12/23 06:31:04;;;;;;;14.95;7.85;;;9.90;99.90;;;;;;5088064;28;20086;-38
2022/12/23 06:33:29;;;;;;;13.38;7.70;;;9.90;99.90;;;;;;5093766;28;20028;-43
2022/12/23 06:35:55;;;;;;;17.27;8.50;;;9.90;99.90;;;;;;5091185;28;20108;-35
2022/12/23 06:38:21;;;;;;;15.50;7.68;;;9.90;99.90;;;;;;5091858;28;20027;-33
2022/12/23 06:40:46;;;;;;;17.52;7.88;;;9.90;99.90;;;;;;5073803;28;20584;-36
2022/12/23 06:43:12;;;;;;;19.40;8.80;;;9.90;99.90;;;;;;5085460;28;20110;-33
2022/12/23 06:45:38;;;;;;;17.48;7.47;;;9.90;99.90;;;;;;5094169;28;20533;-35
2022/12/23 06:48:04;;;;;;;16.25;7.28;;;9.90;99.90;;;;;;5091883;28;20468;-33
2022/12/23 06:50:30;;;;;;;21.73;8.20;;;9.90;99.90;;;;;;5090531;28;20127;-35
2022/12/23 06:52:59;;;;;;;14.95;8.00;;;9.90;99.90;;;;;;5091983;28;20100;-31
2022/12/23 06:55:24;;;;;;;14.63;7.10;;;9.90;99.90;;;;;;5094105;28;20024;-34
2022/12/23 06:57:50;;;;;;;14.43;7.22;;;10.00;99.90;;;;;;5085550;28;20457;-31
2022/12/23 07:00:16;;;;;;;22.75;8.05;;;9.90;99.90;;;;;;5088598;28;20076;-31
2022/12/23 07:02:41;;;;;;;15.07;8.45;;;9.90;99.90;;;;;;5086765;28;20420;-32
2022/12/23 07:05:07;;;;;;;15.23;7.28;;;9.80;99.90;;;;;;5073566;28;20424;-34
2022/12/23 07:07:33;;;;;;;16.85;8.77;;;9.90;99.90;;;;;;5086894;28;20499;-36
2022/12/23 07:09:59;;;;;;;16.08;7.80;;;9.90;99.90;;;;;;5093533;28;20062;-31
2022/12/23 07:12:24;;;;;;;18.83;7.88;;;9.90;99.90;;;;;;5093216;28;20062;-48
2022/12/23 07:14:50;;;;;;;12.40;6.70;;;9.90;99.90;;;;;;5091073;28;20012;-32
2022/12/23 07:17:16;;;;;;;15.38;6.63;;;9.90;99.90;;;;;;5093564;28;20047;-35
2022/12/23 07:19:41;;;;;;;17.60;7.00;;;9.90;99.90;;;;;;5077819;28;20058;-30
2022/12/23 07:22:09;;;;;;;16.52;7.63;;;9.90;99.90;;;;;;5089093;28;20544;-37
2022/12/23 07:24:34;;;;;;;21.77;8.33;;;9.90;99.90;;;;;;5093746;28;20107;-31
2022/12/23 07:27:00;;;;;;;18.63;7.63;;;9.90;99.90;;;;;;5078552;28;20453;-33
2022/12/23 07:29:26;;;;;;;17.88;7.05;;;9.80;99.90;;;;;;5088831;28;20029;-30
2022/12/23 07:31:52;;;;;;;14.82;7.07;;;9.90;99.90;;;;;;5079674;28;20496;-30
2022/12/23 07:34:17;;;;;;;15.75;6.57;;;9.90;99.90;;;;;;5079858;28;20023;-31
2022/12/23 07:36:43;;;;;;;13.88;6.00;;;9.90;99.90;;;;;;5085757;28;20024;-31
2022/12/23 07:39:09;;;;;;;12.60;6.72;;;9.90;99.90;;;;;;5085559;28;20030;-40
2022/12/23 07:41:35;;;;;;;10.40;5.90;;;9.90;99.90;;;;;;5079907;28;20025;-34
2022/12/23 07:44:01;;;;;;;18.27;6.78;;;9.90;99.90;;;;;;5073029;28;20435;-36
2022/12/23 07:46:26;;;;;;;13.43;5.95;;;9.90;99.90;;;;;;5090959;28;20038;-33
2022/12/23 07:48:52;;;;;;;17.77;7.03;;;9.90;99.90;;;;;;5076488;28;20078;-32
2022/12/23 07:51:18;;;;;;;14.25;5.70;;;10.00;99.90;;;;;;5078174;28;20077;-31
2022/12/23 07:53:48;;;;;;;12.05;5.57;;;9.90;99.90;;;;;;5092998;28;20495;-31
2022/12/23 07:56:13;;;;;;;13.40;6.85;;;9.90;99.90;;;;;;5093008;28;20476;-31
2022/12/23 07:58:39;;;;;;;20.35;10.00;;;9.90;99.90;;;;;;5074294;28;20074;-30
2022/12/23 08:01:06;;;;;;;24.55;12.68;;;10.00;99.90;;;;;;5083065;28;20510;-35
2022/12/23 08:03:33;;;;;;;22.00;12.35;;;10.00;99.90;;;;;;5092816;28;20077;-37
2022/12/23 08:06:13;;;;;;;23.00;10.80;;;10.00;99.90;;;;;;5090183;28;20097;-31
2022/12/23 08:08:40;;;;;;;19.10;8.35;;;10.00;99.90;;;;;;5072731;28;20046;-30
2022/12/23 08:11:08;;;;;;;13.32;7.28;;;10.00;99.90;;;;;;5072313;28;20049;-35
2022/12/23 08:13:35;;;;;;;;;;;10.00;99.90;;;;;;5073123;28;20469;-39
2022/12/23 08:16:02;;;;;;;17.75;6.97;;;10.00;99.90;;;;;;5083087;28;19919;-36
2022/12/23 08:18:30;;;;;;;18.05;8.23;;;10.00;99.90;;;;;;5091933;28;20085;-34
2022/12/23 08:20:58;;;;;;;17.20;8.10;;;10.00;99.90;;;;;;5092092;28;20056;-31
2022/12/23 08:23:24;;;;;;;;;;;10.00;99.90;;;;;;5084238;28;20557;-34
2022/12/23 08:26:26;;;;;;;19.73;7.55;;;10.00;99.90;;;;;;5073109;28;19904;-36
2022/12/23 08:28:52;;;;;;;24.23;7.03;;;10.10;99.90;;;;;;5068094;28;20481;-35
2022/12/23 08:31:27;;;;;;;30.92;8.85;;;10.00;99.90;;;;;;5082891;28;20081;-41
2022/12/23 08:33:55;;;;;;;26.55;8.88;;;10.10;99.90;;;;;;5080206;28;20024;-33
2022/12/23 08:36:30;;;;;;;27.45;8.60;;;10.10;99.90;;;;;;5075404;28;20373;-34
2022/12/23 08:38:57;;;;;;;27.08;9.25;;;10.10;99.90;;;;;;5090220;28;20357;-32
2022/12/23 08:41:30;;;;;;;25.70;8.10;;;10.20;99.90;;;;;;5073116;28;20025;-33
2022/12/23 08:43:56;;;;;;;25.70;10.02;;;10.20;99.90;;;;;;5072342;28;20056;-31
2022/12/23 08:46:22;;;;;;;30.25;10.52;;;10.20;99.90;;;;;;5083201;28;20028;-32
2022/12/23 08:48:48;;;;;;;37.83;9.95;;;10.20;99.90;;;;;;5091087;28;20103;-33
2022/12/23 08:51:16;;;;;;;47.38;13.10;;;10.20;99.90;;;;;;5091589;28;20547;-35
2022/12/23 08:53:42;;;;;;;42.55;11.60;;;10.20;99.90;;;;;;5071905;28;20021;-40
2022/12/23 08:56:10;;;;;;;35.25;10.70;;;10.20;99.90;;;;;;5089560;28;20455;-34
2022/12/23 08:58:38;;;;;;;39.65;11.75;;;10.20;99.90;;;;;;5094081;28;20066;-34
2022/12/23 09:01:06;;;;;;;31.80;10.07;;;10.20;99.90;;;;;;5094024;28;20511;-39
2022/12/23 09:03:32;;;;;;;41.50;12.60;;;10.20;99.90;;;;;;5092626;28;20067;-33
2022/12/23 09:05:58;;;;;;;53.05;12.68;;;10.20;99.90;;;;;;5092158;28;20036;-31
2022/12/23 09:08:23;;;;;;;38.38;11.77;;;10.20;99.90;;;;;;5095217;28;20073;-35
2022/12/23 09:10:49;;;;;;;45.20;12.25;;;10.20;99.90;;;;;;5095843;28;20086;-31
2022/12/23 09:13:14;;;;;;;33.72;10.85;;;10.30;99.90;;;;;;5094406;28;20024;-35
2022/12/23 09:15:44;;;;;;;35.85;11.02;;;10.30;99.90;;;;;;5095067;28;20032;-33
2022/12/23 09:18:11;;;;;;;36.35;10.40;;;10.30;99.90;;;;;;5093689;28;20484;-35
2022/12/23 09:20:37;;;;;;;34.08;10.52;;;10.30;99.90;;;;;;5091706;28;20525;-34
2022/12/23 09:23:04;;;;;;;28.90;10.38;;;10.30;99.90;;;;;;5086799;28;20028;-33
2022/12/23 09:25:31;;;;;;;25.42;8.82;;;10.30;99.90;;;;;;5083532;28;20180;-36
2022/12/23 09:27:57;;;;;;;31.58;8.68;;;10.30;99.90;;;;;;5094147;28;20032;-32
2022/12/23 09:30:23;;;;;;;33.75;9.27;;;10.30;99.90;;;;;;5090798;28;20489;-35
2022/12/23 09:32:49;;;;;;;20.65;7.93;;;10.20;99.90;;;;;;5075358;28;20065;-36
2022/12/23 09:35:15;;;;;;;29.63;9.60;;;10.30;99.90;;;;;;5083313;28;20065;-33
2022/12/23 09:37:41;;;;;;;27.02;7.75;;;10.30;99.90;;;;;;5084724;28;20021;-32
2022/12/23 09:40:10;;;;;;;18.20;7.78;;;10.30;99.90;;;;;;5093512;28;20484;-33
2022/12/23 09:42:51;;;;;;;18.33;6.60;;;10.20;99.90;;;;;;5094714;28;20353;-31
2022/12/23 09:45:43;;;;;;;20.50;7.50;;;10.20;99.90;;;;;;5082174;28;20027;-32
2022/12/23 09:48:15;;;;;;;19.75;6.78;;;10.30;99.90;;;;;;5082890;28;20531;-35
2022/12/23 09:50:42;;;;;;;20.67;6.47;;;10.30;99.90;;;;;;5082877;28;20035;-30
2022/12/23 09:53:13;;;;;;;17.40;7.13;;;10.30;99.90;;;;;;5077313;28;20465;-34
2022/12/23 09:55:48;;;;;;;18.38;6.45;;;10.40;99.90;;;;;;5075838;28;20016;-33
2022/12/23 09:58:45;;;;;;;21.77;7.15;;;10.40;99.90;;;;;;5083222;28;20433;-37
2022/12/23 10:01:15;;;;;;;18.92;6.68;;;10.40;99.90;;;;;;5084358;28;20097;-39
2022/12/23 10:03:58;;;;;;;15.48;6.68;;;10.40;99.90;;;;;;5086197;28;20484;-39
2022/12/23 10:06:29;;;;;;;32.88;7.13;;;10.40;99.90;;;;;;5079383;28;20036;-37
2022/12/23 10:08:59;;;;;;;21.05;6.68;;;10.40;99.90;;;;;;5083157;28;20020;-59
2022/12/23 10:11:32;;;;;;;17.02;6.90;;;10.40;99.90;;;;;;5094009;28;20585;-39
2022/12/23 10:14:10;;;;;;;22.20;6.68;;;10.40;99.90;;;;;;5091372;28;20027;-41
2022/12/23 10:16:43;;;;;;;26.60;7.70;;;10.50;99.90;;;;;;5095013;28;20043;-46
2022/12/23 10:19:48;;;;;;;21.73;7.75;;;10.40;99.90;;;;;;5090033;28;20030;-39
2022/12/23 10:22:23;;;;;;;23.63;7.82;;;10.40;99.90;;;;;;5043013;28;20646;-40
2022/12/23 10:24:50;;;;;;;21.63;8.10;;;10.50;99.90;;;;;;5045696;28;20037;-32
2022/12/23 10:27:23;;;;;;;19.08;7.72;;;10.50;99.90;;;;;;5063496;28;20170;-32
2022/12/23 10:29:49;;;;;;;30.60;9.88;;;10.50;99.90;;;;;;5091508;28;20456;-35
2022/12/23 10:32:51;;;;;;;25.05;8.20;;;10.50;99.90;;;;;;5092409;28;20032;-34
2022/12/23 10:35:42;;;;;;;25.20;9.82;;;10.50;99.90;;;;;;5091293;28;20365;-34
2022/12/23 10:38:31;;;;;;;32.30;10.43;;;10.50;99.90;;;;;;5089034;28;20098;-33
2022/12/23 10:41:10;;;;;;;44.00;11.93;;;10.50;99.90;;;;;;5073994;28;20485;-33
2022/12/23 10:44:11;;;;;;;34.35;11.50;;;10.50;99.90;;;;;;5086796;28;20032;-35
2022/12/23 10:47:05;;;;;;;36.92;13.10;;;10.50;99.90;;;;;;5089279;28;20080;-36
2022/12/23 10:49:39;;;;;;;41.90;14.27;;;10.50;99.90;;;;;;5079794;28;20078;-36
2022/12/23 10:52:13;;;;;;;42.58;12.95;;;10.50;99.90;;;;;;5080088;28;20044;-31
2022/12/23 10:54:42;;;;;;;52.05;12.93;;;10.50;99.90;;;;;;5084309;28;20035;-39
2022/12/23 10:57:09;;;;;;;37.13;13.00;;;10.50;99.90;;;;;;5092442;28;20047;-33
2022/12/23 10:59:35;;;;;;;34.00;12.18;;;10.50;99.90;;;;;;5087972;28;20027;-37
2022/12/23 11:02:18;;;;;;;33.55;11.85;;;10.60;99.90;;;;;;5075761;28;20036;-33
2022/12/23 11:04:47;;;;;;;29.48;11.52;;;10.60;99.90;;;;;;5085299;28;20111;-40
2022/12/23 11:07:27;;;;;;;37.08;11.43;;;10.60;99.90;;;;;;5082314;28;20373;-34
2022/12/23 11:10:05;;;;;;;31.40;11.35;;;10.60;99.90;;;;;;5089753;28;20415;-34
2022/12/23 11:12:42;;;;;;;29.90;11.35;;;10.60;99.90;;;;;;5078791;28;20044;-38
2022/12/23 11:15:35;;;;;;;28.70;10.05;;;10.60;99.90;;;;;;5084218;28;20031;-35
2022/12/23 11:18:04;;;;;;;43.05;12.25;;;10.60;99.90;;;;;;5083408;28;20064;-35
2022/12/23 11:20:30;;;;;;;33.03;11.40;;;10.60;99.90;;;;;;5085257;28;20031;-33
2022/12/23 11:23:00;;;;;;;30.88;11.23;;;10.60;99.90;;;;;;5092692;28;20028;-32
2022/12/23 11:25:39;;;;;;;35.85;12.85;;;10.60;99.90;;;;;;5085787;28;20524;-38
2022/12/23 11:28:04;;;;;;;28.83;12.27;;;10.50;99.90;;;;;;5078484;28;20041;-35
2022/12/23 11:30:34;;;;;;;31.42;11.88;;;10.50;99.90;;;;;;5087486;28;20392;-33
2022/12/23 11:32:59;;;;;;;32.17;13.18;;;10.50;99.90;;;;;;5085099;28;20249;-36
2022/12/23 11:35:29;;;;;;;51.40;12.88;;;10.50;99.90;;;;;;5082030;28;20107;-34
2022/12/23 11:37:57;;;;;;;34.40;13.38;;;10.50;99.90;;;;;;5080324;28;20480;-34
2022/12/23 11:40:26;;;;;;;35.15;14.27;;;10.50;99.90;;;;;;5089720;28;20020;-33
2022/12/23 11:43:04;;;;;;;43.08;15.98;;;10.50;99.90;;;;;;5082876;28;20048;-34
2022/12/23 11:45:34;;;;;;;38.33;15.10;;;10.40;99.90;;;;;;5082631;28;20415;-33
2022/12/23 11:48:03;;;;;;;39.58;14.40;;;10.40;99.90;;;;;;5083793;28;20031;-36
2022/12/23 11:50:38;;;;;;;37.95;13.48;;;10.50;99.90;;;;;;5089521;28;20063;-33
2022/12/23 11:53:13;;;;;;;44.88;17.02;;;10.40;99.90;;;;;;5077333;28;21579;-35
2022/12/23 11:55:58;;;;;;;55.80;21.52;;;10.40;99.90;;;;;;5085999;28;20451;-31
2022/12/23 11:58:26;;;;;;;47.03;18.52;;;10.40;99.90;;;;;;5086400;28;20476;-32
2022/12/23 12:00:58;;;;;;;42.75;17.67;;;10.40;99.90;;;;;;5091752;28;20524;-31
2022/12/23 12:03:29;;;;;;;42.70;16.75;;;10.40;99.90;;;;;;5082406;28;20492;-32
2022/12/23 12:06:03;;;;;;;43.88;17.23;;;10.40;99.90;;;;;;5084162;28;20031;-31
2022/12/23 12:08:34;;;;;;;46.00;18.33;;;10.40;99.90;;;;;;5084176;28;20055;-35
2022/12/23 12:11:24;;;;;;;44.33;15.80;;;10.40;99.90;;;;;;5083659;28;20045;-34
2022/12/23 12:14:05;;;;;;;43.63;16.90;;;10.40;99.90;;;;;;5081786;28;20055;-33
2022/12/23 12:17:03;;;;;;;49.38;21.77;;;10.40;99.90;;;;;;5082381;28;20035;-40
2022/12/23 12:20:01;;;;;;;39.95;15.10;;;10.40;99.90;;;;;;5081724;28;20025;-30
2022/12/23 12:22:33;;;;;;;41.58;20.38;;;10.40;99.90;;;;;;5077154;28;20067;-37
2022/12/23 12:25:14;;;;;;;47.10;16.38;;;10.40;99.90;;;;;;5081181;28;20161;-30
2022/12/23 12:27:44;;;;;;;43.58;17.63;;;10.40;99.90;;;;;;5092604;28;20353;-31
2022/12/23 12:30:17;;;;;;;41.10;16.35;;;10.40;99.90;;;;;;5089052;28;20056;-36
2022/12/23 12:33:05;;;;;;;43.72;16.42;;;10.30;99.90;;;;;;5081097;28;20483;-32
2022/12/23 12:36:01;;;;;;;46.15;15.48;;;10.40;99.90;;;;;;5095775;28;20028;-36
2022/12/23 12:38:31;;;;;;;42.85;16.08;;;10.40;99.90;;;;;;5074404;28;20044;-31
2022/12/23 12:41:27;;;;;;;41.90;15.40;;;10.40;99.90;;;;;;5082890;28;20028;-32
2022/12/23 12:44:16;;;;;;;46.22;23.23;;;10.40;99.90;;;;;;5086076;28;20065;-40
2022/12/23 12:46:54;;;;;;;36.35;13.90;;;10.40;99.90;;;;;;5091559;28;20023;-35
2022/12/23 12:49:22;;;;;;;34.78;14.82;;;10.50;99.90;;;;;;5090353;28;20392;-33
2022/12/23 12:52:14;;;;;;;32.67;13.88;;;10.40;99.90;;;;;;5083718;28;20032;-32
2022/12/23 12:55:02;;;;;;;34.15;14.63;;;10.40;99.90;;;;;;5082698;28;20659;-33
2022/12/23 12:57:30;;;;;;;33.90;13.88;;;10.40;99.90;;;;;;5081383;28;20009;-35
2022/12/23 12:59:58;;;;;;;30.80;13.52;;;10.40;99.90;;;;;;5093879;28;20114;-32
2022/12/23 13:02:55;;;;;;;34.58;15.02;;;10.40;99.90;;;;;;5091823;28;20443;-34
2022/12/23 13:05:54;;;;;;;22.63;10.50;;;10.40;99.90;;;;;;5079548;28;20038;-39
2022/12/23 13:08:36;;;;;;;30.60;12.80;;;10.40;99.90;;;;;;5085013;28;20913;-34
2022/12/23 13:11:30;;;;;;;25.25;11.82;;;10.40;99.90;;;;;;5087856;28;20044;-33
2022/12/23 13:14:11;;;;;;;27.58;11.88;;;10.30;99.90;;;;;;5085454;28;20062;-38
2022/12/23 13:16:58;;;;;;;26.58;11.13;;;10.40;99.90;;;;;;5088264;28;20031;-33
2022/12/23 13:19:28;;;;;;;24.92;10.77;;;10.30;99.90;;;;;;5094308;28;20052;-37
2022/12/23 13:22:04;;;;;;;24.92;11.07;;;10.30;99.90;;;;;;5091179;28;20027;-38
2022/12/23 13:24:38;;;;;;;27.30;11.05;;;10.30;99.90;;;;;;5087937;28;20500;-51
2022/12/23 13:27:17;;;;;;;28.27;14.57;;;10.30;99.90;;;;;;5091948;28;20051;-38